Time;durP1;ratioP1;P1;durP2;ratioP2;P2;SDS_P1;SDS_P2;PMS_P1;PMS_P2;Temp;Humidity;BMP_temperature;BMP_pressure;BME280_temperature;BME280_humidity;BME280_pressure;Samples;Min_cycle;Max_cycle;Signal;HPM_P1;HPM_P2
2021/04/27 00:00:24;;;;;;;3.80;3.00;;;;;;;2.67;72.13;94879.69;5026096;28;20318;-65
2021/04/27 00:02:50;;;;;;;3.70;3.50;;;;;;;2.67;72.74;94875.28;5024296;28;20248;-65
2021/04/27 00:05:18;;;;;;;3.13;2.93;;;;;;;2.67;72.19;94856.25;5019194;28;20643;-65
2021/04/27 00:07:46;;;;;;;3.60;3.27;;;;;;;2.64;72.01;94859.13;5021530;28;20226;-65
2021/04/27 00:10:15;;;;;;;4.10;3.80;;;;;;;2.62;71.63;94851.47;5039002;28;20349;-66
2021/04/27 00:12:42;;;;;;;3.77;3.47;;;;;;;2.62;71.77;94856.69;5028896;28;20302;-66
2021/04/27 00:15:11;;;;;;;3.77;3.47;;;;;;;2.61;73.04;94843.81;5025399;28;20299;-66
2021/04/27 00:17:38;;;;;;;3.50;3.23;;;;;;;2.59;72.46;94841.38;5025818;28;20259;-66
2021/04/27 00:20:07;;;;;;;3.23;3.03;;;;;;;2.55;72.60;94840.03;5014163;28;20227;-65
2021/04/27 00:22:35;;;;;;;3.37;2.70;;;;;;;2.50;73.10;94837.91;5009383;28;20528;-66
2021/04/27 00:25:02;;;;;;;5.30;2.80;;;;;;;2.51;72.71;94839.53;4987079;28;20362;-66
2021/04/27 00:27:29;;;;;;;5.13;4.43;;;;;;;2.49;72.14;94835.47;4984621;28;20320;-66
2021/04/27 00:29:55;;;;;;;1.80;1.70;;;;;;;2.48;71.42;94834.66;5010179;28;20310;-66
2021/04/27 00:32:22;;;;;;;3.17;2.70;;;;;;;2.45;70.62;94834.94;5005410;28;20829;-66
2021/04/27 00:34:49;;;;;;;3.03;2.37;;;;;;;2.46;70.60;94831.38;4991127;28;20283;-66
2021/04/27 00:37:16;;;;;;;2.70;2.50;;;;;;;2.44;70.64;94828.09;4994362;28;20234;-67
2021/04/27 00:39:44;;;;;;;2.77;2.57;;;;;;;2.41;70.88;94825.00;4988229;28;20358;-64
2021/04/27 00:42:11;;;;;;;3.27;2.73;;;;;;;2.35;70.50;94823.00;4990636;28;20304;-66
2021/04/27 00:44:38;;;;;;;1.67;1.57;;;;;;;2.32;70.63;94823.31;4979966;28;20644;-66
2021/04/27 00:47:05;;;;;;;2.77;2.57;;;;;;;2.34;71.52;94821.38;4997871;28;20486;-67
2021/04/27 00:49:32;;;;;;;3.60;3.33;;;;;;;2.30;72.47;94820.88;5006396;28;20216;-66
2021/04/27 00:52:00;;;;;;;3.37;2.23;;;;;;;2.28;73.95;94818.41;4988729;28;20256;-66
2021/04/27 00:54:27;;;;;;;3.07;2.87;;;;;;;2.26;73.70;94822.16;4985968;28;20267;-66
2021/04/27 00:56:55;;;;;;;3.87;3.57;;;;;;;2.26;74.19;94824.75;4993164;28;20287;-66
2021/04/27 00:59:22;;;;;;;2.37;2.20;;;;;;;2.23;73.50;94819.84;4992038;28;20627;-67
2021/04/27 01:01:49;;;;;;;2.77;2.53;;;;;;;2.19;73.54;94818.50;5003494;28;20290;-66
2021/04/27 01:04:16;;;;;;;5.10;3.10;;;;;;;2.17;73.57;94816.06;5000708;28;20465;-66
2021/04/27 01:06:42;;;;;;;4.70;4.30;;;;;;;2.16;73.37;94811.84;4989931;28;20231;-66
2021/04/27 01:09:15;;;;;;;2.67;2.47;;;;;;;2.15;73.32;94818.00;4987771;28;20368;-66
2021/04/27 01:11:48;;;;;;;4.10;3.20;;;;;;;2.11;73.32;94815.88;4988633;28;20237;-66
2021/04/27 01:14:28;;;;;;;2.47;2.10;;;;;;;2.12;72.57;94812.31;4989738;28;20563;-66
2021/04/27 01:17:00;;;;;;;3.57;2.63;;;;;;;2.12;71.44;94818.34;5001700;28;20232;-65
2021/04/27 01:19:42;;;;;;;3.00;2.80;;;;;;;2.15;70.84;94812.00;4966099;28;20522;-65
2021/04/27 01:22:13;;;;;;;4.47;2.30;;;;;;;2.15;70.07;94812.00;4986491;28;20614;-66
2021/04/27 01:24:45;;;;;;;2.50;2.30;;;;;;;2.15;70.32;94801.59;4988785;28;20694;-66
2021/04/27 01:27:13;;;;;;;4.30;1.90;;;;;;;2.18;69.81;94811.69;4980026;28;20584;-66
2021/04/27 01:29:40;;;;;;;5.30;3.60;;;;;;;2.23;69.41;94806.84;5011188;28;20231;-65
2021/04/27 01:32:08;;;;;;;3.20;2.73;;;;;;;2.31;69.46;94799.09;5004603;28;20244;-66
2021/04/27 01:34:39;;;;;;;2.80;2.10;;;;;;;2.34;68.83;94801.38;4999367;28;20228;-66
2021/04/27 01:37:18;;;;;;;5.57;2.50;;;;;;;2.39;68.83;94799.13;5015792;28;20769;-65
2021/04/27 01:39:46;;;;;;;2.17;2.07;;;;;;;2.39;68.68;94796.53;5005814;28;20227;-66
2021/04/27 01:42:14;;;;;;;2.03;1.93;;;;;;;2.33;68.73;94798.94;5023114;28;20232;-66
2021/04/27 01:44:43;;;;;;;3.23;1.97;;;;;;;2.30;68.38;94792.25;5023009;28;20243;-66
2021/04/27 01:47:12;;;;;;;3.43;2.53;;;;;;;2.26;68.69;94790.91;5024105;28;20257;-67
2021/04/27 01:49:42;;;;;;;1.67;1.57;;;;;;;2.27;68.35;94792.53;5018172;28;20238;-66
2021/04/27 01:52:32;;;;;;;1.90;1.50;;;;;;;2.29;68.82;94798.44;5001302;28;20688;-67
2021/04/27 01:55:02;;;;;;;3.67;2.37;;;;;;;2.28;68.51;94796.78;5020409;28;20771;-66
2021/04/27 01:57:30;;;;;;;1.80;1.70;;;;;;;2.33;68.01;94797.13;5023883;28;20216;-66
2021/04/27 01:59:59;;;;;;;2.33;2.07;;;;;;;2.33;68.12;94793.72;5035235;28;20738;-66
2021/04/27 02:02:40;;;;;;;2.20;2.00;;;;;;;2.22;68.96;94792.19;5026682;28;20237;-65
2021/04/27 02:05:26;;;;;;;2.93;2.10;;;;;;;2.14;69.07;94797.34;5013920;28;20227;-66
2021/04/27 02:08:00;;;;;;;2.77;2.47;;;;;;;2.03;69.06;94797.63;5029014;28;20230;-64
2021/04/27 02:10:31;;;;;;;2.70;2.50;;;;;;;1.94;69.16;94799.34;5025609;28;20310;-66
2021/04/27 02:13:07;;;;;;;2.10;1.90;;;;;;;1.80;70.70;94798.09;5027068;28;20231;-66
2021/04/27 02:15:36;;;;;;;2.50;2.30;;;;;;;1.63;70.27;94794.53;5017398;28;20306;-66
2021/04/27 02:18:09;;;;;;;2.40;2.20;;;;;;;1.57;71.31;94796.94;5023669;28;20226;-66
2021/04/27 02:20:38;;;;;;;1.67;1.37;;;;;;;1.46;71.13;94803.16;5021073;28;20246;-66
2021/04/27 02:23:31;;;;;;;2.77;2.57;;;;;;;1.46;71.85;94794.56;5029271;28;20229;-66
2021/04/27 02:26:02;;;;;;;2.93;2.23;;;;;;;1.38;72.05;94793.53;5025398;28;20866;-66
2021/04/27 02:28:40;;;;;;;2.10;1.97;;;;;;;1.37;72.06;94794.50;5041595;28;20211;-64
2021/04/27 02:31:07;;;;;;;12.97;3.03;;;;;;;1.29;71.83;94784.03;5041822;28;20362;-65
2021/04/27 02:33:34;;;;;;;2.43;2.27;;;;;;;1.23;72.19;94786.41;5034077;28;20223;-66
2021/04/27 02:36:02;;;;;;;2.27;2.17;;;;;;;1.17;72.67;94785.22;5022391;28;20242;-66
2021/04/27 02:38:42;;;;;;;6.13;1.93;;;;;;;1.12;72.98;94779.66;5026240;28;20219;-66
2021/04/27 02:41:15;;;;;;;4.43;4.10;;;;;;;1.16;73.22;94777.56;5026539;28;20230;-65
2021/04/27 02:43:43;;;;;;;3.37;2.47;;;;;;;1.14;72.74;94775.94;5037783;28;20230;-65
2021/04/27 02:46:11;;;;;;;3.00;2.73;;;;;;;1.09;73.13;94772.94;5029750;28;20219;-66
2021/04/27 02:48:52;;;;;;;1.77;1.67;;;;;;;1.09;73.03;94766.94;5024577;28;20223;-66
2021/04/27 02:51:23;;;;;;;2.60;2.40;;;;;;;1.08;73.71;94775.69;5026034;28;20223;-66
2021/04/27 02:53:56;;;;;;;2.67;2.00;;;;;;;1.07;73.80;94769.69;5027134;28;20297;-65
2021/04/27 02:56:24;;;;;;;2.43;2.23;;;;;;;1.09;73.30;94772.13;5013063;28;20219;-66
2021/04/27 02:58:52;;;;;;;5.20;2.73;;;;;;;1.07;73.15;94761.09;5032019;28;20230;-66
2021/04/27 03:01:21;;;;;;;2.60;2.40;;;;;;;1.04;72.69;94763.97;5030489;28;20239;-65
2021/04/27 03:03:48;;;;;;;3.23;2.17;;;;;;;1.00;72.56;94763.44;5022601;28;20220;-66
2021/04/27 03:06:15;;;;;;;3.90;1.93;;;;;;;0.97;73.09;94758.56;5038130;28;20336;-65
2021/04/27 03:09:01;;;;;;;3.93;2.47;;;;;;;0.96;72.50;94756.09;5021630;28;20222;-66
2021/04/27 03:11:28;;;;;;;1.90;1.80;;;;;;;0.96;72.65;94756.09;5021968;28;20231;-66
2021/04/27 03:13:56;;;;;;;3.20;2.07;;;;;;;0.92;73.11;94753.00;5041784;28;20227;-66
2021/04/27 03:16:24;;;;;;;2.07;1.87;;;;;;;0.92;73.54;94760.78;5026319;28;20473;-66
2021/04/27 03:18:52;;;;;;;3.00;2.10;;;;;;;0.92;73.16;94754.78;5020262;28;20310;-65
2021/04/27 03:21:22;;;;;;;2.73;2.63;;;;;;;0.90;74.16;94752.31;5021692;28;20588;-65
2021/04/27 03:23:54;;;;;;;2.53;2.33;;;;;;;0.89;73.49;94755.06;5031534;28;20784;-66
2021/04/27 03:26:21;;;;;;;4.40;3.50;;;;;;;0.86;74.17;94756.19;5025948;28;20219;-65
2021/04/27 03:29:04;;;;;;;2.47;2.37;;;;;;;0.87;75.15;94751.78;5016387;28;20310;-66
2021/04/27 03:31:37;;;;;;;6.50;2.90;;;;;;;0.82;74.32;94760.00;5022193;28;20227;-66
2021/04/27 03:34:04;;;;;;;3.50;3.10;;;;;;;0.81;74.67;94754.00;5017796;28;20228;-66
2021/04/27 03:36:31;;;;;;;3.47;2.23;;;;;;;0.78;73.89;94754.31;5035594;28;20240;-66
2021/04/27 03:39:00;;;;;;;2.50;2.30;;;;;;;0.77;73.94;94755.28;5031725;28;20702;-66
2021/04/27 03:41:27;;;;;;;2.27;2.17;;;;;;;0.76;74.67;94761.44;5025069;28;20239;-66
2021/04/27 03:43:54;;;;;;;2.60;2.40;;;;;;;0.74;74.67;94758.16;5024925;28;20334;-66
2021/04/27 03:46:22;;;;;;;2.77;2.57;;;;;;;0.73;74.31;94751.34;5025255;28;20223;-64
2021/04/27 03:48:50;;;;;;;6.23;3.57;;;;;;;0.71;74.35;94750.66;5043856;28;20373;-64
2021/04/27 03:51:19;;;;;;;3.23;2.97;;;;;;;0.71;75.03;94753.25;5028433;28;20223;-64
2021/04/27 03:54:02;;;;;;;3.07;2.73;;;;;;;0.68;74.74;94756.16;5017288;28;20236;-64
2021/04/27 03:56:33;;;;;;;2.13;2.03;;;;;;;0.67;76.09;94756.31;5023395;28;20598;-65
2021/04/27 03:59:03;;;;;;;2.47;2.23;;;;;;;0.62;76.25;94754.13;5014189;28;20228;-64
2021/04/27 04:01:32;;;;;;;3.80;3.00;;;;;;;0.61;75.61;94752.50;5023716;28;20227;-64
2021/04/27 04:03:59;;;;;;;3.93;2.97;;;;;;;0.59;76.10;94756.19;5018095;28;20586;-64
2021/04/27 04:06:27;;;;;;;5.77;2.93;;;;;;;0.50;76.22;94747.50;5021838;28;20297;-65
2021/04/27 04:09:00;;;;;;;6.20;3.17;;;;;;;0.44;76.31;94755.84;5019574;28;20373;-65
2021/04/27 04:11:31;;;;;;;2.90;2.70;;;;;;;0.37;76.64;94754.81;5020754;28;20757;-65
2021/04/27 04:14:00;;;;;;;3.17;2.97;;;;;;;0.28;76.41;94757.31;5015691;28;20224;-64
2021/04/27 04:16:32;;;;;;;4.77;2.83;;;;;;;0.17;76.36;94757.47;5024534;28;20226;-64
2021/04/27 04:18:59;;;;;;;2.93;2.73;;;;;;;0.11;76.87;94755.47;5015869;28;20235;-64
2021/04/27 04:21:26;;;;;;;4.90;2.20;;;;;;;0.06;76.66;94747.28;5024793;28;20233;-63
2021/04/27 04:23:58;;;;;;;2.63;2.27;;;;;;;0.06;77.21;94754.25;5025407;28;20323;-64
2021/04/27 04:26:25;;;;;;;3.07;2.87;;;;;;;0.04;77.45;94746.63;5018809;28;20669;-64
2021/04/27 04:29:10;;;;;;;2.60;2.40;;;;;;;0.07;78.45;94754.09;5028314;28;20222;-64
2021/04/27 04:31:42;;;;;;;4.57;3.20;;;;;;;0.06;79.03;94752.47;5028375;28;20376;-63
2021/04/27 04:34:28;;;;;;;4.17;2.50;;;;;;;0.05;79.45;94750.84;5032058;28;20234;-64
2021/04/27 04:37:13;;;;;;;2.40;1.97;;;;;;;0.09;79.40;94746.19;5021452;28;20219;-64
2021/04/27 04:39:59;;;;;;;4.10;2.93;;;;;;;0.17;80.32;94752.28;5019878;28;20310;-64
2021/04/27 04:42:45;;;;;;;3.67;3.23;;;;;;;0.30;80.79;94753.75;5020795;28;20231;-64
2021/04/27 04:45:35;;;;;;;3.33;3.13;;;;;;;0.44;79.89;94753.25;5017290;28;20310;-64
2021/04/27 04:48:26;;;;;;;3.50;3.20;;;;;;;0.55;79.65;94755.69;5001335;28;20242;-64
2021/04/27 04:51:11;;;;;;;3.47;3.17;;;;;;;0.68;78.91;94758.75;5035971;28;20234;-63
2021/04/27 04:53:57;;;;;;;2.80;2.20;;;;;;;0.78;78.31;94759.50;5023358;28;20238;-64
2021/04/27 04:56:25;;;;;;;2.90;2.17;;;;;;;0.91;77.20;94750.53;5022614;28;20247;-64
2021/04/27 04:58:52;;;;;;;3.33;2.73;;;;;;;1.02;77.20;94752.94;5022124;28;20250;-63
2021/04/27 05:01:19;;;;;;;3.10;2.90;;;;;;;1.14;77.01;94749.94;5025221;28;20235;-64
2021/04/27 05:04:01;;;;;;;3.53;3.30;;;;;;;1.27;76.03;94746.97;5014789;28;20610;-64
2021/04/27 05:06:48;;;;;;;2.80;2.60;;;;;;;1.42;75.13;94742.88;5007077;28;20224;-64
2021/04/27 05:09:34;;;;;;;3.50;3.07;;;;;;;1.54;74.08;94748.66;5024325;28;20502;-64
2021/04/27 05:12:05;;;;;;;2.87;2.67;;;;;;;1.63;73.94;94739.13;5037900;28;20227;-64
2021/04/27 05:14:33;;;;;;;3.73;3.07;;;;;;;1.74;73.37;94740.66;5013929;28;20706;-64
2021/04/27 05:17:02;;;;;;;2.67;2.47;;;;;;;1.85;73.11;94736.03;5024051;28;20230;-64
2021/04/27 05:19:31;;;;;;;3.00;2.80;;;;;;;1.90;72.70;94736.38;5020456;28;20814;-64
2021/04/27 05:21:59;;;;;;;7.70;3.67;;;;;;;2.02;72.36;94730.94;5018072;28;20559;-64
2021/04/27 05:24:29;;;;;;;2.40;2.27;;;;;;;2.14;72.74;94740.09;5021720;28;20223;-64
2021/04/27 05:27:00;;;;;;;4.50;4.20;;;;;;;2.29;72.98;94733.34;5023184;28;20243;-64
2021/04/27 05:29:27;;;;;;;3.40;3.10;;;;;;;2.38;71.34;94735.00;5021131;28;20235;-64
2021/04/27 05:31:54;;;;;;;4.20;3.70;;;;;;;2.49;72.36;94737.34;5016690;28;20289;-64
2021/04/27 05:34:21;;;;;;;3.40;3.20;;;;;;;2.60;71.81;94738.03;5017737;28;20240;-64
2021/04/27 05:36:49;;;;;;;3.17;2.97;;;;;;;2.70;71.19;94743.91;5014528;28;20274;-63
2021/04/27 05:39:15;;;;;;;3.07;2.83;;;;;;;2.81;71.90;94741.81;5029016;28;20251;-63
2021/04/27 05:41:42;;;;;;;3.93;3.63;;;;;;;2.93;71.65;94742.34;5019697;28;20318;-64
2021/04/27 05:44:10;;;;;;;3.87;3.53;;;;;;;2.97;71.95;94738.44;5000603;28;20224;-64
2021/04/27 05:46:37;;;;;;;4.23;2.87;;;;;;;3.12;70.95;94738.66;5021597;28;20569;-64
2021/04/27 05:49:04;;;;;;;2.87;2.67;;;;;;;3.24;70.10;94741.75;5020055;28;20246;-64
2021/04/27 05:51:31;;;;;;;3.47;2.80;;;;;;;3.34;70.44;94745.00;5015007;28;20270;-64
2021/04/27 05:53:59;;;;;;;4.63;3.50;;;;;;;3.43;70.56;94739.63;5031335;28;20274;-64
2021/04/27 05:56:27;;;;;;;4.40;3.20;;;;;;;3.64;69.65;94736.53;5027246;28;20696;-64
2021/04/27 05:58:54;;;;;;;3.80;3.60;;;;;;;3.74;70.37;94736.34;5018338;28;20233;-64
2021/04/27 06:01:21;;;;;;;5.27;4.30;;;;;;;3.84;69.50;94742.25;5021885;28;20238;-64
2021/04/27 06:03:48;;;;;;;6.37;3.10;;;;;;;3.92;68.69;94736.16;5023682;28;20259;-63
2021/04/27 06:06:15;;;;;;;4.53;4.10;;;;;;;4.16;66.88;94743.97;5011976;28;20792;-64
2021/04/27 06:08:42;;;;;;;4.20;3.90;;;;;;;4.26;67.75;94736.75;5030376;28;20766;-65
2021/04/27 06:11:10;;;;;;;6.27;3.07;;;;;;;4.42;66.80;94737.69;5030011;28;20322;-65
2021/04/27 06:13:37;;;;;;;5.47;2.50;;;;;;;4.49;65.81;94728.22;5028307;28;20297;-64
2021/04/27 06:16:05;;;;;;;2.77;2.57;;;;;;;4.51;65.37;94727.03;5019134;28;20235;-64
2021/04/27 06:18:32;;;;;;;7.50;3.57;;;;;;;4.62;66.49;94725.84;5023589;28;20683;-64
2021/04/27 06:20:59;;;;;;;6.00;3.63;;;;;;;4.87;64.52;94731.78;5018703;28;20653;-64
2021/04/27 06:23:26;;;;;;;3.97;3.70;;;;;;;4.89;64.33;94729.00;5012246;28;20229;-64
2021/04/27 06:25:54;;;;;;;5.67;3.23;;;;;;;4.95;65.58;94728.31;5020645;28;20633;-63
2021/04/27 06:28:22;;;;;;;3.30;3.00;;;;;;;5.06;65.57;94720.88;5016153;28;20219;-65
2021/04/27 06:30:48;;;;;;;4.13;3.83;;;;;;;5.14;64.47;94733.09;5004593;28;20254;-65
2021/04/27 06:33:15;;;;;;;7.07;4.20;;;;;;;5.25;64.87;94727.47;5004733;28;20234;-64
2021/04/27 06:35:43;;;;;;;4.27;3.90;;;;;;;5.35;64.65;94720.19;4988111;28;20577;-64
2021/04/27 06:38:16;;;;;;;3.93;3.63;;;;;;;5.55;64.08;94714.47;4985154;28;20234;-64
2021/04/27 06:40:44;;;;;;;3.07;2.87;;;;;;;5.71;63.76;94716.97;4996240;28;20309;-65
2021/04/27 06:43:11;;;;;;;5.83;4.17;;;;;;;5.70;63.91;94723.19;4999838;28;20251;-64
2021/04/27 06:45:38;;;;;;;4.03;3.17;;;;;;;5.88;63.42;94731.53;4986296;28;20240;-64
2021/04/27 06:48:06;;;;;;;3.37;3.17;;;;;;;5.89;64.57;94727.13;4993166;28;20307;-65
2021/04/27 06:50:35;;;;;;;3.63;3.33;;;;;;;6.02;63.32;94726.53;4975489;28;20217;-64
2021/04/27 06:53:02;;;;;;;2.97;2.80;;;;;;;6.16;62.75;94725.75;4988907;28;20328;-64
2021/04/27 06:55:30;;;;;;;6.40;3.13;;;;;;;6.24;61.45;94720.41;5006562;28;20243;-64
2021/04/27 06:58:01;;;;;;;5.90;5.43;;;;;;;6.29;62.76;94725.91;5012673;28;20255;-64
2021/04/27 07:00:28;;;;;;;5.47;4.97;;;;;;;6.33;62.53;94719.34;5001927;28;20237;-64
2021/04/27 07:02:56;;;;;;;5.40;3.90;;;;;;;6.38;62.25;94714.34;5008711;28;20228;-65
2021/04/27 07:05:23;;;;;;;4.27;3.87;;;;;;;6.43;63.60;94714.63;5001526;28;20224;-63
2021/04/27 07:07:50;;;;;;;4.40;4.00;;;;;;;6.53;62.38;94709.94;5021989;28;20313;-65
2021/04/27 07:10:21;;;;;;;4.47;4.13;;;;;;;6.71;61.11;94719.22;5026142;28;20224;-64
2021/04/27 07:12:47;;;;;;;7.00;3.77;;;;;;;6.82;60.99;94713.50;5018765;28;20466;-65
2021/04/27 07:15:15;;;;;;;3.33;3.13;;;;;;;6.87;61.10;94713.78;5005543;28;20313;-65
2021/04/27 07:17:42;;;;;;;4.60;3.77;;;;;;;6.98;61.50;94702.81;5017061;28;20249;-65
2021/04/27 07:20:12;;;;;;;5.63;4.47;;;;;;;7.13;61.26;94700.97;5002133;28;20767;-65
2021/04/27 07:22:39;;;;;;;4.50;4.10;;;;;;;7.31;60.42;94707.56;5018309;28;20432;-65
2021/04/27 07:25:09;;;;;;;5.23;3.70;;;;;;;7.45;59.92;94703.28;5009198;28;20238;-65
2021/04/27 07:27:36;;;;;;;5.80;4.03;;;;;;;7.57;59.93;94692.06;5017503;28;20720;-65
2021/04/27 07:30:04;;;;;;;4.00;3.60;;;;;;;7.62;60.54;94694.13;5019624;28;20238;-65
2021/04/27 07:32:32;;;;;;;4.90;3.67;;;;;;;7.76;59.88;94695.03;5010582;28;20641;-65
2021/04/27 07:34:59;;;;;;;3.80;3.50;;;;;;;7.99;59.04;94685.13;4996856;28;20392;-65
2021/04/27 07:37:27;;;;;;;4.43;4.13;;;;;;;7.97;59.54;94687.94;4996040;28;20311;-65
2021/04/27 07:39:54;;;;;;;5.13;4.73;;;;;;;8.17;58.52;94688.06;5008834;28;20625;-65
2021/04/27 07:42:21;;;;;;;5.00;4.57;;;;;;;8.35;59.47;94684.97;5017819;28;20231;-64
2021/04/27 07:44:48;;;;;;;4.73;3.67;;;;;;;8.50;57.68;94687.47;5007483;28;20311;-65
2021/04/27 07:47:15;;;;;;;4.43;4.07;;;;;;;8.54;56.80;94683.47;5025422;28;20319;-66
2021/04/27 07:49:42;;;;;;;5.00;4.40;;;;;;;8.64;58.13;94683.91;5006799;28;20254;-65
2021/04/27 07:52:10;;;;;;;4.57;4.27;;;;;;;8.75;57.46;94677.28;4988841;28;20226;-65
2021/04/27 07:54:38;;;;;;;5.13;4.63;;;;;;;8.93;57.89;94682.00;5005346;28;20223;-65
2021/04/27 07:57:06;;;;;;;7.53;5.80;;;;;;;9.11;56.78;94669.91;5027601;28;20320;-65
2021/04/27 07:59:32;;;;;;;4.90;4.63;;;;;;;9.32;56.43;94666.28;5017792;28;20781;-66
2021/04/27 08:01:59;;;;;;;5.77;5.37;;;;;;;9.54;55.05;94674.03;5024097;28;20247;-65
2021/04/27 08:04:26;;;;;;;4.73;4.43;;;;;;;9.66;56.20;94667.94;5012922;28;20242;-65
2021/04/27 08:06:53;;;;;;;6.53;6.03;;;;;;;9.84;56.69;94667.34;5022633;28;20285;-65
2021/04/27 08:09:21;;;;;;;5.63;5.33;;;;;;;9.97;55.39;94663.91;5025233;28;20218;-65
2021/04/27 08:11:49;;;;;;;5.10;4.03;;;;;;;10.30;55.35;94669.13;5011954;28;21602;-65
2021/04/27 08:14:17;;;;;;;7.27;5.17;;;;;;;10.47;55.35;94659.78;5029167;28;20294;-65
2021/04/27 08:16:44;;;;;;;5.70;4.80;;;;;;;10.75;53.25;94661.31;5025974;28;20262;-65
2021/04/27 08:19:11;;;;;;;7.63;5.73;;;;;;;10.92;53.72;94667.72;5018915;28;20223;-65
2021/04/27 08:21:39;;;;;;;4.83;4.33;;;;;;;11.00;54.04;94659.56;5020003;28;20235;-65
2021/04/27 08:24:08;;;;;;;7.60;5.07;;;;;;;11.25;52.18;94661.47;5016907;28;20243;-65
2021/04/27 08:26:55;;;;;;;5.07;4.63;;;;;;;11.48;52.63;94655.63;5021775;28;20238;-65
2021/04/27 08:29:22;;;;;;;5.77;5.37;;;;;;;11.48;52.12;94656.44;5021030;28;20460;-65
2021/04/27 08:31:58;;;;;;;11.97;6.60;;;;;;;11.49;51.05;94652.78;5004921;28;20239;-65
2021/04/27 08:34:26;;;;;;;6.20;5.83;;;;;;;11.56;52.41;94656.19;5003814;28;20236;-66
2021/04/27 08:36:53;;;;;;;4.70;4.40;;;;;;;11.83;52.20;94663.94;5025345;28;20365;-66
2021/04/27 08:39:20;;;;;;;7.40;5.00;;;;;;;11.89;51.17;94652.50;5023412;28;20688;-66
2021/04/27 08:41:47;;;;;;;5.17;4.87;;;;;;;11.99;50.60;94652.84;5023872;28;20334;-66
2021/04/27 08:44:15;;;;;;;7.67;3.90;;;;;;;12.16;49.83;94648.59;5030592;28;20261;-66
2021/04/27 08:46:42;;;;;;;4.57;4.27;;;;;;;12.28;50.69;94651.34;5020840;28;20219;-65
2021/04/27 08:49:09;;;;;;;6.73;6.07;;;;;;;12.40;51.75;94644.28;5021604;28;20922;-66
2021/04/27 08:51:36;;;;;;;5.37;4.87;;;;;;;12.79;49.79;94643.00;5005181;28;20251;-65
2021/04/27 08:54:16;;;;;;;4.53;4.13;;;;;;;13.07;50.23;94634.53;5006089;28;20227;-66
2021/04/27 08:56:43;;;;;;;6.70;4.17;;;;;;;13.36;49.86;94640.88;5015770;28;20306;-66
2021/04/27 08:59:09;;;;;;;5.13;4.83;;;;;;;13.62;47.94;94641.50;5024736;28;20314;-67
2021/04/27 09:01:37;;;;;;;3.93;3.60;;;;;;;13.71;48.63;94629.53;5026185;28;20277;-66
2021/04/27 09:04:05;;;;;;;7.23;6.73;;;;;;;13.64;47.94;94636.81;5020398;28;20231;-66
2021/04/27 09:06:33;;;;;;;6.47;5.87;;;;;;;13.71;47.65;94632.19;5005186;28;20220;-66
2021/04/27 09:08:59;;;;;;;6.13;5.43;;;;;;;13.81;47.23;94637.75;5013228;28;20235;-66
2021/04/27 09:11:31;;;;;;;6.93;5.77;;;;;;;13.72;49.40;94633.84;5024138;28;20243;-66
2021/04/27 09:14:14;;;;;;;5.57;5.07;;;;;;;14.16;48.39;94631.66;5016566;28;20296;-66
2021/04/27 09:16:49;;;;;;;5.93;5.37;;;;;;;14.38;48.44;94624.72;5007469;28;20294;-66
2021/04/27 09:19:44;;;;;;;8.37;5.00;;;;;;;14.91;47.33;94623.75;4993820;28;20220;-66
2021/04/27 09:22:14;;;;;;;6.43;5.83;;;;;;;14.93;44.96;94621.66;4971036;28;20228;-66
2021/04/27 09:24:44;;;;;;;5.73;5.23;;;;;;;14.82;45.59;94619.84;5023342;28;20223;-66
2021/04/27 09:27:25;;;;;;;5.90;5.37;;;;;;;14.97;45.83;94617.47;5027734;28;20288;-67
2021/04/27 09:29:52;;;;;;;6.27;4.97;;;;;;;14.94;45.08;94617.13;5015489;28;20227;-66
2021/04/27 09:32:36;;;;;;;6.17;5.67;;;;;;;15.08;46.26;94623.78;5013019;28;20537;-66
2021/04/27 09:35:32;;;;;;;8.73;4.73;;;;;;;15.40;44.77;94623.31;5005607;28;20270;-67
2021/04/27 09:38:12;;;;;;;4.67;4.23;;;;;;;15.53;45.07;94621.13;4973630;28;20306;-66
2021/04/27 09:40:56;;;;;;;4.50;4.10;;;;;;;15.60;43.77;94621.81;5022540;28;20580;-67
2021/04/27 09:43:25;;;;;;;7.27;6.10;;;;;;;15.52;42.41;94616.06;5015250;28;20585;-66
2021/04/27 09:45:54;;;;;;;4.70;4.40;;;;;;;15.69;44.44;94618.78;5014838;28;20254;-66
2021/04/27 09:48:37;;;;;;;5.13;4.73;;;;;;;15.85;44.05;94618.78;5013594;28;20684;-66
2021/04/27 09:51:26;;;;;;;6.10;5.50;;;;;;;15.60;43.44;94616.50;5024028;28;20227;-66
2021/04/27 09:54:13;;;;;;;5.30;5.00;;;;;;;15.93;43.81;94614.94;5020450;28;20265;-66
2021/04/27 09:57:00;;;;;;;13.03;6.47;;;;;;;16.12;44.37;94608.28;5018735;28;20228;-67
2021/04/27 09:59:28;;;;;;;7.20;4.93;;;;;;;16.46;41.87;94621.56;5020072;28;20216;-66
2021/04/27 10:01:57;;;;;;;6.07;5.67;;;;;;;16.77;41.97;94598.81;5022334;28;20281;-66
2021/04/27 10:04:26;;;;;;;5.53;5.23;;;;;;;17.19;41.54;94601.69;5022608;28;20224;-66
2021/04/27 10:07:01;;;;;;;6.63;6.07;;;;;;;16.81;43.12;94599.09;5024058;28;20646;-66
2021/04/27 10:09:29;;;;;;;5.40;5.00;;;;;;;17.21;42.47;94596.91;5022623;28;20227;-65
2021/04/27 10:11:57;;;;;;;7.93;5.30;;;;;;;17.33;41.50;94592.22;4985671;28;21290;-66
2021/04/27 10:14:24;;;;;;;6.33;5.87;;;;;;;17.45;41.86;94592.06;4987155;28;20247;-66
2021/04/27 10:16:52;;;;;;;4.57;4.17;;;;;;;17.27;41.81;94590.56;5004527;28;20255;-67
2021/04/27 10:19:18;;;;;;;5.13;4.63;;;;;;;17.32;40.46;94590.63;5010948;28;20223;-66
2021/04/27 10:21:48;;;;;;;5.47;4.87;;;;;;;17.29;41.64;94580.47;5026245;28;20229;-66
2021/04/27 10:24:18;;;;;;;4.90;4.53;;;;;;;17.62;41.56;94579.41;5021309;28;20227;-67
2021/04/27 10:26:47;;;;;;;6.03;5.63;;;;;;;17.68;40.29;94577.63;5012380;28;20224;-68
2021/04/27 10:29:18;;;;;;;5.53;5.13;;;;;;;17.87;40.63;94568.19;5038351;28;20219;-66
2021/04/27 10:31:47;;;;;;;5.50;4.90;;;;;;;17.97;39.90;94563.97;5026729;28;20744;-65
2021/04/27 10:34:17;;;;;;;6.90;4.57;;;;;;;18.00;40.83;94564.25;5012863;28;20228;-66
2021/04/27 10:37:06;;;;;;;6.30;5.87;;;;;;;18.15;40.04;94560.91;5007993;28;20331;-66
2021/04/27 10:39:38;;;;;;;5.17;4.87;;;;;;;18.19;39.28;94561.97;5010684;28;20248;-67
2021/04/27 10:42:16;;;;;;;5.23;4.80;;;;;;;18.28;40.42;94559.63;5013511;28;20231;-67
2021/04/27 10:44:50;;;;;;;6.60;6.13;;;;;;;18.15;38.30;94567.03;5018064;28;20501;-66
2021/04/27 10:47:19;;;;;;;6.37;5.80;;;;;;;18.24;38.32;94558.53;5022859;28;20218;-66
2021/04/27 10:49:47;;;;;;;5.80;5.27;;;;;;;18.20;39.33;94555.59;5018097;28;20303;-66
2021/04/27 10:52:30;;;;;;;6.67;6.17;;;;;;;18.12;39.05;94562.22;5022212;28;20285;-66
2021/04/27 10:55:31;;;;;;;4.83;4.63;;;;;;;18.39;39.72;94554.09;5019001;28;21269;-66
2021/04/27 10:58:00;;;;;;;5.87;5.37;;;;;;;18.66;39.47;94547.84;4943781;28;20223;-66
2021/04/27 11:00:44;;;;;;;9.30;5.60;;;;;;;18.27;38.40;94552.69;4921815;29;20739;-66
2021/04/27 11:03:14;;;;;;;6.13;5.63;;;;;;;18.00;39.64;94542.91;4973862;28;20224;-67
2021/04/27 11:05:52;;;;;;;6.60;5.13;;;;;;;18.20;39.96;94547.59;4991031;28;20220;-66
2021/04/27 11:08:20;;;;;;;5.37;5.00;;;;;;;18.39;40.28;94546.09;5020219;28;20219;-66
2021/04/27 11:10:49;;;;;;;6.27;5.73;;;;;;;18.50;39.21;94541.59;5028793;28;20273;-66
2021/04/27 11:13:17;;;;;;;4.60;4.30;;;;;;;19.18;39.27;94541.56;5002485;28;20748;-69
2021/04/27 11:15:45;;;;;;;5.70;5.20;;;;;;;19.55;38.10;94546.69;5024232;28;20251;-67
2021/04/27 11:18:16;;;;;;;5.60;5.10;;;;;;;19.26;38.95;94543.72;5028328;28;20220;-66
2021/04/27 11:20:55;;;;;;;5.80;5.10;;;;;;;19.21;37.63;94541.06;5020368;28;20247;-67
2021/04/27 11:23:42;;;;;;;5.87;5.37;;;;;;;19.13;36.63;94538.91;5019011;28;20476;-67
2021/04/27 11:26:52;;;;;;;8.10;7.30;;;;;;;19.23;38.11;94536.25;5008407;28;20881;-66
2021/04/27 11:29:22;;;;;;;5.77;5.23;;;;;;;19.68;39.15;94534.72;5030487;28;20232;-66
2021/04/27 11:32:07;;;;;;;6.40;6.03;;;;;;;19.25;37.12;94531.41;5025915;28;20306;-66
2021/04/27 11:34:51;;;;;;;8.73;6.33;;;;;;;19.14;37.46;94540.50;5010162;28;20324;-66
2021/04/27 11:37:20;;;;;;;4.50;4.20;;;;;;;19.39;38.46;94529.03;5016789;28;20310;-67
2021/04/27 11:39:47;;;;;;;6.27;5.87;;;;;;;19.44;37.60;94534.38;5025795;28;20227;-66
2021/04/27 11:42:23;;;;;;;5.77;5.40;;;;;;;19.37;36.95;94521.25;5028425;28;20307;-66
2021/04/27 11:44:55;;;;;;;4.70;4.40;;;;;;;19.51;37.19;94524.22;5019914;28;20731;-67
2021/04/27 11:47:23;;;;;;;6.83;6.13;;;;;;;19.28;38.28;94526.34;5025717;28;20301;-66
2021/04/27 11:49:56;;;;;;;4.83;4.57;;;;;;;19.58;37.71;94525.59;5012687;28;20305;-66
2021/04/27 11:53:01;;;;;;;5.93;5.53;;;;;;;19.49;36.87;94527.19;5025927;28;20220;-66
2021/04/27 11:55:38;;;;;;;7.83;6.80;;;;;;;19.45;37.32;94519.94;5025180;28;20671;-66
2021/04/27 11:58:08;;;;;;;7.87;7.23;;;;;;;19.51;37.77;94522.34;5023273;28;20562;-67